createdAt,value
2023-05-06T00:01:17.133Z,14.50
2023-05-06T00:04:40.142Z,14.40
2023-05-06T00:08:01.755Z,14.40
2023-05-06T00:11:23.355Z,14.30
2023-05-06T00:14:44.937Z,14.20
2023-05-06T00:18:06.684Z,14.20
2023-05-06T00:21:29.677Z,14.20
2023-05-06T00:24:51.266Z,14.20
2023-05-06T00:28:12.979Z,14.00
2023-05-06T00:31:34.645Z,14.00
2023-05-06T00:34:56.304Z,13.80
2023-05-06T00:38:19.233Z,13.70
2023-05-06T00:41:40.829Z,13.60
2023-05-06T00:45:02.402Z,13.50
2023-05-06T00:48:24.207Z,13.40
2023-05-06T00:51:45.788Z,13.40
2023-05-06T00:55:09.507Z,13.40
2023-05-06T00:58:31.275Z,13.50
2023-05-06T01:01:52.830Z,13.50
2023-05-06T01:05:15.192Z,13.50
2023-05-06T01:08:40.251Z,13.60
2023-05-06T01:12:06.956Z,13.60
2023-05-06T01:15:31.424Z,13.50
2023-05-06T01:18:53.957Z,13.50
2023-05-06T01:22:16.081Z,13.40
2023-05-06T01:25:39.097Z,13.30
2023-05-06T01:29:01.213Z,13.30
2023-05-06T01:32:29.708Z,13.10
2023-05-06T01:35:55.067Z,13.10
2023-05-06T01:39:17.424Z,13.10
2023-05-06T01:42:40.547Z,13.10
2023-05-06T01:46:02.927Z,13.10
2023-05-06T01:49:24.904Z,13.10
2023-05-06T01:52:55.470Z,13.10
2023-05-06T01:56:17.132Z,13.10
2023-05-06T01:59:40.244Z,13.10
2023-05-06T02:03:01.959Z,13.10
2023-05-06T02:06:23.689Z,13.10
2023-05-06T02:09:45.281Z,13.10
2023-05-06T02:13:06.895Z,13.10
2023-05-06T02:16:29.905Z,13.10
2023-05-06T02:19:51.498Z,13.10
2023-05-06T02:23:13.069Z,13.20
2023-05-06T02:26:34.695Z,13.20
2023-05-06T02:29:56.276Z,13.30
2023-05-06T02:33:19.182Z,13.30
2023-05-06T02:36:40.755Z,13.30
2023-05-06T02:40:02.416Z,13.30
2023-05-06T02:43:24.106Z,13.20
2023-05-06T02:46:45.684Z,13.20
2023-05-06T02:50:08.761Z,13.20
2023-05-06T02:53:30.410Z,13.10
2023-05-06T02:56:51.985Z,13.10
2023-05-06T03:00:14.002Z,13.10
2023-05-06T03:03:35.586Z,13.00
2023-05-06T03:06:58.482Z,13.00
2023-05-06T03:10:20.055Z,13.00
2023-05-06T03:13:41.651Z,12.90
2023-05-06T03:17:03.236Z,12.80
2023-05-06T03:20:24.808Z,12.70
2023-05-06T03:23:47.748Z,12.60
2023-05-06T03:27:09.321Z,12.50
2023-05-06T03:30:31.009Z,12.40
2023-05-06T03:33:52.653Z,12.30
2023-05-06T03:37:14.214Z,12.20
2023-05-06T03:40:37.193Z,12.20
2023-05-06T03:43:58.974Z,12.10
2023-05-06T03:47:20.876Z,12.10
2023-05-06T03:50:42.878Z,12.00
2023-05-06T03:54:04.472Z,12.00
2023-05-06T03:57:27.412Z,12.10
2023-05-06T04:00:49.004Z,12.00
2023-05-06T04:04:10.934Z,12.10
2023-05-06T04:07:32.633Z,12.10
2023-05-06T04:10:54.783Z,12.20
2023-05-06T04:14:17.844Z,12.30
2023-05-06T04:17:39.475Z,12.30
2023-05-06T04:21:01.505Z,12.40
2023-05-06T04:24:23.217Z,12.40
2023-05-06T04:27:45.016Z,12.50
2023-05-06T04:31:07.948Z,12.60
2023-05-06T04:34:30.023Z,12.70
2023-05-06T04:37:51.815Z,12.70
2023-05-06T04:41:13.977Z,12.70
2023-05-06T04:44:36.224Z,12.80
2023-05-06T04:47:59.680Z,12.80
2023-05-06T04:51:21.432Z,12.80
2023-05-06T04:54:45.335Z,12.90
2023-05-06T04:58:07.341Z,12.90
2023-05-06T05:01:28.935Z,13.00
2023-05-06T05:04:51.896Z,13.20
2023-05-06T05:08:13.476Z,13.30
2023-05-06T05:11:36.825Z,13.60
2023-05-06T05:14:58.379Z,13.80
2023-05-06T05:18:19.946Z,14.10
2023-05-06T05:21:42.880Z,14.50
2023-05-06T05:25:07.063Z,16.00
2023-05-06T05:28:29.664Z,18.00
2023-05-06T05:31:51.293Z,19.40
2023-05-06T05:35:13.154Z,21.00
2023-05-06T05:38:36.064Z,21.80
2023-05-06T05:41:57.644Z,22.60
2023-05-06T05:45:19.211Z,23.10
2023-05-06T05:48:40.802Z,23.80
2023-05-06T05:52:02.365Z,24.60
2023-05-06T05:55:25.304Z,25.50
2023-05-06T06:02:08.804Z,27.30
2023-05-06T06:05:30.398Z,26.60
2023-05-06T06:08:52.034Z,27.20
2023-05-06T06:12:15.117Z,26.90
2023-05-06T06:15:36.721Z,26.90
2023-05-06T06:18:58.440Z,27.30
2023-05-06T06:22:20.017Z,27.40
2023-05-06T06:25:41.659Z,26.60
2023-05-06T06:29:04.616Z,25.70
2023-05-06T06:32:26.225Z,26.30
2023-05-06T06:35:47.812Z,25.70
2023-05-06T06:39:09.393Z,25.40
2023-05-06T06:42:30.984Z,25.80
2023-05-06T06:45:53.958Z,24.50
2023-05-06T06:49:16.318Z,24.90
2023-05-06T06:52:37.916Z,26.10
2023-05-06T06:55:59.494Z,26.00
2023-05-06T06:59:21.088Z,24.20
2023-05-06T07:02:44.072Z,22.20
2023-05-06T07:06:05.740Z,21.50
2023-05-06T07:09:27.363Z,21.10
2023-05-06T07:12:49.002Z,22.20
2023-05-06T07:16:10.649Z,23.30
2023-05-06T07:19:33.598Z,25.70
2023-05-06T07:22:55.175Z,26.90
2023-05-06T07:26:16.752Z,26.00
2023-05-06T07:29:38.306Z,24.90
2023-05-06T07:32:59.894Z,23.40
2023-05-06T07:36:22.820Z,22.10
2023-05-06T07:39:44.405Z,21.30
2023-05-06T07:43:06.765Z,20.70
2023-05-06T07:46:28.526Z,20.20
2023-05-06T07:49:50.452Z,19.60
2023-05-06T07:53:13.416Z,20.00
2023-05-06T07:56:35.150Z,22.20
2023-05-06T07:59:57.008Z,22.90
2023-05-06T08:03:18.778Z,23.50
2023-05-06T08:06:40.461Z,23.90
2023-05-06T08:10:03.540Z,23.20
2023-05-06T08:13:25.580Z,22.00
2023-05-06T08:16:47.259Z,21.30
2023-05-06T08:20:09.818Z,20.80
2023-05-06T08:23:31.466Z,20.50
2023-05-06T08:26:54.417Z,20.10
2023-05-06T08:30:16.004Z,19.50
2023-05-06T08:33:37.564Z,19.10
2023-05-06T08:36:59.153Z,19.30
2023-05-06T08:40:21.443Z,20.10
2023-05-06T08:43:45.725Z,20.40
2023-05-06T08:47:07.328Z,21.50
2023-05-06T08:50:28.943Z,21.10
2023-05-06T08:53:50.876Z,20.20
2023-05-06T08:57:12.884Z,20.40
2023-05-06T09:00:35.940Z,21.70
2023-05-06T09:03:57.980Z,22.70
2023-05-06T09:07:20.474Z,23.70
2023-05-06T09:10:45.235Z,23.80
2023-05-06T09:14:07.776Z,24.50
2023-05-06T09:17:31.289Z,25.10
2023-05-06T09:20:52.979Z,25.00
2023-05-06T09:24:15.319Z,24.70
2023-05-06T09:27:36.973Z,24.70
2023-05-06T09:30:59.293Z,24.70
2023-05-06T09:34:22.590Z,24.90
2023-05-06T09:37:44.725Z,24.90
2023-05-06T09:41:06.682Z,25.10
2023-05-06T09:44:28.903Z,25.10
2023-05-06T09:47:51.392Z,25.80
2023-05-06T09:51:14.557Z,26.20
2023-05-06T09:54:39.758Z,26.30
2023-05-06T09:58:02.122Z,26.20
2023-05-06T10:01:36.098Z,25.90
2023-05-06T10:04:59.432Z,25.70
2023-05-06T10:08:23.390Z,25.50
2023-05-06T10:11:47.947Z,25.30
2023-05-06T10:15:10.607Z,25.10
2023-05-06T10:18:33.747Z,24.80
2023-05-06T10:22:00.552Z,24.80
2023-05-06T10:25:29.920Z,25.40
2023-05-06T10:28:53.242Z,25.10
2023-05-06T10:32:16.126Z,25.00
2023-05-06T10:35:42.279Z,24.70
2023-05-06T10:39:03.904Z,24.30
2023-05-06T10:42:27.737Z,23.90
2023-05-06T10:45:58.996Z,24.00
2023-05-06T10:49:20.623Z,23.80
2023-05-06T10:52:48.860Z,23.30
2023-05-06T10:56:10.670Z,22.80
2023-05-06T10:59:33.641Z,22.40
2023-05-06T11:02:56.502Z,22.00
2023-05-06T11:06:32.125Z,21.60
2023-05-06T11:09:54.213Z,21.50
2023-05-06T11:13:25.457Z,21.60
2023-05-06T11:16:49.165Z,21.70
2023-05-06T11:20:20.512Z,22.10
2023-05-06T11:24:00.529Z,22.30
2023-05-06T11:27:22.123Z,22.20
2023-05-06T11:30:44.225Z,21.90
2023-05-06T11:34:09.007Z,21.50
2023-05-06T11:37:30.899Z,21.10
2023-05-06T11:40:52.581Z,20.90
2023-05-06T11:44:23.821Z,20.80
2023-05-06T11:47:45.494Z,20.80
2023-05-06T11:51:08.512Z,21.20
2023-05-06T11:54:33.666Z,21.20
2023-05-06T11:57:55.768Z,21.20
2023-05-06T12:01:17.486Z,21.10
2023-05-06T12:04:40.205Z,21.40
2023-05-06T12:08:06.319Z,21.50
2023-05-06T12:11:30.164Z,21.50
2023-05-06T12:14:52.849Z,21.20
2023-05-06T12:18:14.463Z,21.20
2023-05-06T12:21:39.019Z,21.20
2023-05-06T12:25:12.428Z,21.10
2023-05-06T12:28:35.370Z,21.10
2023-05-06T12:32:06.767Z,21.10
2023-05-06T12:35:28.923Z,21.40
2023-05-06T12:38:51.073Z,21.60
2023-05-06T12:42:19.793Z,21.70
2023-05-06T12:45:41.432Z,22.00
2023-05-06T12:49:03.136Z,22.20
2023-05-06T12:52:29.298Z,22.30
2023-05-06T12:55:51.046Z,22.00
2023-05-06T12:59:13.986Z,21.80
2023-05-06T13:02:35.613Z,21.60
2023-05-06T13:05:57.263Z,21.50
2023-05-06T13:09:18.868Z,21.40
2023-05-06T13:12:40.566Z,21.30
2023-05-06T13:16:03.779Z,21.20
2023-05-06T13:22:55.196Z,21.20
2023-05-06T13:26:17.162Z,21.10
2023-05-06T13:29:38.914Z,21.20
2023-05-06T13:33:03.831Z,21.20
2023-05-06T13:36:25.481Z,21.20
2023-05-06T13:39:47.051Z,21.10
2023-05-06T13:43:08.640Z,21.20
2023-05-06T13:46:30.263Z,21.30
2023-05-06T13:49:53.166Z,21.40
2023-05-06T13:53:15.047Z,21.50
2023-05-06T13:56:36.661Z,21.80
2023-05-06T13:59:58.257Z,21.90
2023-05-06T14:03:19.852Z,22.00
2023-05-06T14:06:42.799Z,22.20
2023-05-06T14:10:04.831Z,21.90
2023-05-06T14:13:27.121Z,21.80
2023-05-06T14:16:48.723Z,21.70
2023-05-06T14:20:10.725Z,21.50
2023-05-06T14:23:34.145Z,21.50
2023-05-06T14:26:55.781Z,21.50
2023-05-06T14:30:17.504Z,21.40
2023-05-06T14:33:39.099Z,21.40
2023-05-06T14:37:00.791Z,21.40
2023-05-06T14:40:23.875Z,21.40
2023-05-06T14:43:45.477Z,21.40
2023-05-06T14:47:07.062Z,21.40
2023-05-06T14:50:29.456Z,21.30
2023-05-06T14:53:51.545Z,21.40
2023-05-06T14:57:14.548Z,21.40
2023-05-06T15:00:36.110Z,21.40
2023-05-06T15:03:57.704Z,21.50
2023-05-06T15:07:19.289Z,21.50
2023-05-06T15:10:40.863Z,21.50
2023-05-06T15:14:03.822Z,21.40
2023-05-06T15:17:25.454Z,21.40
2023-05-06T15:20:47.141Z,21.30
2023-05-06T15:24:08.905Z,21.30
2023-05-06T15:27:30.519Z,21.30
2023-05-06T15:30:53.485Z,21.30
2023-05-06T15:34:15.081Z,21.30
2023-05-06T15:37:37.017Z,21.40
2023-05-06T15:40:58.848Z,21.40
2023-05-06T15:44:21.143Z,21.40
2023-05-06T15:47:44.382Z,21.40
2023-05-06T15:51:06.205Z,21.40
2023-05-06T15:54:28.099Z,21.30
2023-05-06T15:57:49.697Z,21.20
2023-05-06T16:01:11.324Z,21.20
2023-05-06T16:04:34.578Z,21.20
2023-05-06T16:07:56.334Z,21.20
2023-05-06T16:11:17.912Z,21.20
2023-05-06T16:14:39.510Z,21.20
2023-05-06T16:18:01.167Z,21.20
2023-05-06T16:21:24.187Z,21.20
2023-05-06T16:24:45.798Z,21.20
2023-05-06T16:28:07.665Z,21.10
2023-05-06T16:31:29.527Z,21.10
2023-05-06T16:34:51.088Z,21.10
2023-05-06T16:38:14.276Z,21.10
2023-05-06T16:41:35.846Z,21.10
2023-05-06T16:44:57.402Z,21.00
2023-05-06T16:48:19.151Z,20.90
2023-05-06T16:51:40.809Z,20.90
2023-05-06T16:55:04.085Z,20.90
2023-05-06T16:58:25.747Z,20.80
2023-05-06T17:01:47.341Z,20.80
2023-05-06T17:05:09.064Z,20.70
2023-05-06T17:11:56.110Z,20.50
2023-05-06T17:15:17.812Z,20.30
2023-05-06T17:18:39.372Z,20.20
2023-05-06T17:22:00.986Z,20.10
2023-05-06T17:25:22.749Z,20.00
2023-05-06T17:28:45.742Z,19.90
2023-05-06T17:32:07.332Z,19.80
2023-05-06T17:35:29.092Z,19.70
2023-05-06T17:38:52.059Z,19.60
2023-05-06T17:42:13.677Z,19.60
2023-05-06T17:45:36.611Z,19.60
2023-05-06T17:48:58.200Z,19.50
2023-05-06T17:52:20.098Z,19.40
2023-05-06T17:55:41.726Z,19.40
2023-05-06T17:59:03.329Z,19.30
2023-05-06T18:02:26.322Z,19.30
2023-05-06T18:05:47.977Z,19.20
2023-05-06T18:09:09.575Z,19.10
2023-05-06T18:12:31.279Z,19.10
2023-05-06T18:15:52.926Z,19.00
2023-05-06T18:19:15.901Z,18.90
2023-05-06T18:22:37.463Z,18.80
2023-05-06T18:25:59.036Z,18.70
2023-05-06T18:29:20.622Z,18.70
2023-05-06T18:32:42.245Z,18.50
2023-05-06T18:36:05.503Z,18.40
2023-05-06T18:39:27.103Z,18.30
2023-05-06T18:42:48.750Z,18.30
2023-05-06T18:46:10.490Z,18.20
2023-05-06T18:49:32.370Z,18.10
2023-05-06T18:52:55.303Z,18.10
2023-05-06T18:56:16.922Z,18.00
2023-05-06T18:59:38.526Z,17.80
2023-05-06T19:03:00.218Z,17.60
2023-05-06T19:06:21.920Z,17.40
2023-05-06T19:09:44.867Z,17.30
2023-05-06T19:13:06.453Z,17.10
2023-05-06T19:16:28.123Z,17.00
2023-05-06T19:19:49.732Z,16.80
2023-05-06T19:23:11.371Z,16.70
2023-05-06T19:26:34.378Z,16.60
2023-05-06T19:29:56.098Z,16.60
2023-05-06T19:33:17.693Z,16.50
2023-05-06T19:36:39.314Z,16.40
2023-05-06T19:40:00.973Z,16.30
2023-05-06T19:43:23.900Z,16.30
2023-05-06T19:46:45.517Z,16.20
2023-05-06T19:50:07.796Z,16.20
2023-05-06T19:53:29.514Z,16.20
2023-05-06T19:56:51.088Z,16.20
2023-05-06T20:00:15.075Z,16.20
2023-05-06T20:03:36.856Z,16.10
2023-05-06T20:06:58.522Z,16.00
2023-05-06T20:10:20.150Z,16.00
2023-05-06T20:13:41.771Z,15.90
2023-05-06T20:17:04.899Z,15.80
2023-05-06T20:20:26.688Z,15.80
2023-05-06T20:23:48.268Z,15.60
2023-05-06T20:27:10.160Z,15.60
2023-05-06T20:30:32.127Z,15.50
2023-05-06T20:33:55.066Z,15.40
2023-05-06T20:37:16.635Z,15.30
2023-05-06T20:40:38.262Z,15.20
2023-05-06T20:43:59.845Z,15.10
2023-05-06T20:47:21.452Z,15.00
2023-05-06T20:50:44.415Z,15.00
2023-05-06T20:54:06.030Z,14.90
2023-05-06T20:57:27.580Z,14.80
2023-05-06T21:00:49.191Z,14.80
2023-05-06T21:04:10.766Z,14.70
2023-05-06T21:07:33.679Z,14.70
2023-05-06T21:10:55.354Z,14.60
2023-05-06T21:14:16.947Z,14.60
2023-05-06T21:17:38.800Z,14.60
2023-05-06T21:21:00.656Z,14.60
2023-05-06T21:24:23.618Z,14.60
2023-05-06T21:27:45.210Z,14.50
2023-05-06T21:31:06.960Z,14.50
2023-05-06T21:34:28.541Z,14.40
2023-05-06T21:37:50.252Z,14.40
2023-05-06T21:41:13.272Z,14.30
2023-05-06T21:44:34.843Z,14.30
2023-05-06T21:47:56.466Z,14.20
2023-05-06T21:51:18.053Z,14.10
2023-05-06T21:54:39.642Z,14.00
2023-05-06T21:58:02.581Z,14.00
2023-05-06T22:01:24.767Z,13.90
2023-05-06T22:04:46.413Z,13.90
2023-05-06T22:08:07.988Z,13.90
2023-05-06T22:11:29.625Z,13.80
2023-05-06T22:14:52.562Z,13.70
2023-05-06T22:18:14.137Z,13.70
2023-05-06T22:21:35.729Z,13.60
2023-05-06T22:24:57.365Z,13.60
2023-05-06T22:28:19.036Z,13.50
2023-05-06T22:31:41.991Z,13.50
2023-05-06T22:35:03.815Z,13.40
2023-05-06T22:38:25.376Z,13.40
2023-05-06T22:41:46.946Z,13.40
2023-05-06T22:45:09.675Z,13.30
2023-05-06T22:48:33.109Z,13.30
2023-05-06T22:51:54.819Z,13.30
2023-05-06T22:55:16.379Z,13.20
2023-05-06T22:58:38.079Z,13.20
2023-05-06T23:01:59.661Z,13.10
2023-05-06T23:05:23.563Z,13.20
2023-05-06T23:08:45.137Z,13.20
2023-05-06T23:12:07.082Z,13.10
2023-05-06T23:15:28.765Z,13.10
2023-05-06T23:18:50.333Z,13.00
2023-05-06T23:22:13.336Z,13.00
2023-05-06T23:25:34.940Z,13.00
2023-05-06T23:28:56.538Z,13.00
2023-05-06T23:32:18.080Z,13.10
2023-05-06T23:35:39.681Z,13.10
2023-05-06T23:39:02.622Z,13.10
2023-05-06T23:42:25.608Z,13.10
2023-05-06T23:45:47.320Z,13.10
2023-05-06T23:49:08.948Z,13.10
2023-05-06T23:52:30.896Z,13.10
2023-05-06T23:55:54.175Z,13.10
2023-05-06T23:59:15.731Z,13.00
